sensor_id;sensor_type;location;lat;lon;timestamp;pressure;altitude;pressure_sealevel;temperature;humidity
53246;BME280;39569;51.090;-1.786;2023-05-24T00:00:18;101987.41;;;21.03;43.27
53246;BME280;39569;51.090;-1.786;2023-05-24T00:02:46;101994.28;;;20.99;43.15
53246;BME280;39569;51.090;-1.786;2023-05-24T00:05:14;102001.59;;;20.98;43.64
53246;BME280;39569;51.090;-1.786;2023-05-24T00:07:43;101999.94;;;20.97;43.49
53246;BME280;39569;51.090;-1.786;2023-05-24T00:10:10;101994.28;;;20.99;43.73
53246;BME280;39569;51.090;-1.786;2023-05-24T00:12:37;102000.34;;;20.94;43.75
53246;BME280;39569;51.090;-1.786;2023-05-24T00:15:05;101990.09;;;20.96;43.52
53246;BME280;39569;51.090;-1.786;2023-05-24T00:17:32;101990.72;;;20.98;43.59
53246;BME280;39569;51.090;-1.786;2023-05-24T00:20:07;101990.53;;;21.00;44.04
53246;BME280;39569;51.090;-1.786;2023-05-24T00:22:36;101993.25;;;20.93;43.99
53246;BME280;39569;51.090;-1.786;2023-05-24T00:25:04;101981.97;;;20.83;43.92
53246;BME280;39569;51.090;-1.786;2023-05-24T00:27:31;101990.34;;;20.75;43.77
53246;BME280;39569;51.090;-1.786;2023-05-24T00:29:58;101996.59;;;20.76;43.63
53246;BME280;39569;51.090;-1.786;2023-05-24T00:32:25;101981.16;;;20.70;43.86
53246;BME280;39569;51.090;-1.786;2023-05-24T00:34:52;101991.16;;;20.63;43.70
53246;BME280;39569;51.090;-1.786;2023-05-24T00:37:18;101989.50;;;20.62;43.66
53246;BME280;39569;51.090;-1.786;2023-05-24T00:39:46;101985.56;;;20.64;43.69
53246;BME280;39569;51.090;-1.786;2023-05-24T00:42:13;101982.00;;;20.64;43.69
53246;BME280;39569;51.090;-1.786;2023-05-24T00:44:40;101986.81;;;20.62;43.76
53246;BME280;39569;51.090;-1.786;2023-05-24T00:47:07;101989.09;;;20.51;43.66
53246;BME280;39569;51.090;-1.786;2023-05-24T00:49:34;101986.38;;;20.51;43.81
53246;BME280;39569;51.090;-1.786;2023-05-24T00:52:00;101986.78;;;20.48;44.07
53246;BME280;39569;51.090;-1.786;2023-05-24T00:54:27;101992.00;;;20.37;44.11
53246;BME280;39569;51.090;-1.786;2023-05-24T00:56:56;101981.59;;;20.47;43.96
53246;BME280;39569;51.090;-1.786;2023-05-24T00:59:23;101967.38;;;20.38;44.11
53246;BME280;39569;51.090;-1.786;2023-05-24T01:01:50;101971.75;;;20.39;44.27
53246;BME280;39569;51.090;-1.786;2023-05-24T01:04:17;101973.41;;;20.40;44.25
53246;BME280;39569;51.090;-1.786;2023-05-24T01:06:55;101962.16;;;20.37;44.24
53246;BME280;39569;51.090;-1.786;2023-05-24T01:09:32;101958.00;;;20.34;44.08
53246;BME280;39569;51.090;-1.786;2023-05-24T01:12:10;101964.25;;;20.28;44.00
53246;BME280;39569;51.090;-1.786;2023-05-24T01:14:45;101972.56;;;20.20;44.51
53246;BME280;39569;51.090;-1.786;2023-05-24T01:17:19;101969.47;;;20.23;44.29
53246;BME280;39569;51.090;-1.786;2023-05-24T01:19:51;101970.31;;;20.30;44.46
53246;BME280;39569;51.090;-1.786;2023-05-24T01:22:53;101967.38;;;20.32;44.42
53246;BME280;39569;51.090;-1.786;2023-05-24T01:25:38;101971.75;;;20.33;44.46
53246;BME280;39569;51.090;-1.786;2023-05-24T01:28:10;101970.94;;;20.32;44.35
53246;BME280;39569;51.090;-1.786;2023-05-24T01:30:38;101974.66;;;20.31;44.44
53246;BME280;39569;51.090;-1.786;2023-05-24T01:33:05;101981.97;;;20.24;44.39
53246;BME280;39569;51.090;-1.786;2023-05-24T01:35:32;101980.09;;;20.25;44.51
53246;BME280;39569;51.090;-1.786;2023-05-24T01:38:04;101979.88;;;20.20;44.66
53246;BME280;39569;51.090;-1.786;2023-05-24T01:40:31;101986.56;;;20.17;44.71
53246;BME280;39569;51.090;-1.786;2023-05-24T01:43:02;101982.09;;;20.03;44.61
53246;BME280;39569;51.090;-1.786;2023-05-24T01:45:34;101980.25;;;19.97;44.35
53246;BME280;39569;51.090;-1.786;2023-05-24T01:48:23;101974.19;;;19.95;43.93
53246;BME280;39569;51.090;-1.786;2023-05-24T01:50:57;101969.16;;;19.86;43.83
53246;BME280;39569;51.090;-1.786;2023-05-24T01:53:25;101978.09;;;19.80;43.84
53246;BME280;39569;51.090;-1.786;2023-05-24T01:55:56;101970.13;;;19.65;44.07
53246;BME280;39569;51.090;-1.786;2023-05-24T01:58:24;101976.56;;;19.57;44.12
53246;BME280;39569;51.090;-1.786;2023-05-24T02:00:54;101972.63;;;19.60;44.15
53246;BME280;39569;51.090;-1.786;2023-05-24T02:03:21;101970.06;;;19.52;44.62
53246;BME280;39569;51.090;-1.786;2023-05-24T02:05:47;101965.50;;;19.52;44.78
53246;BME280;39569;51.090;-1.786;2023-05-24T02:08:14;101966.72;;;19.50;45.05
53246;BME280;39569;51.090;-1.786;2023-05-24T02:10:41;101967.56;;;19.50;44.93
53246;BME280;39569;51.090;-1.786;2023-05-24T02:13:08;101967.56;;;19.50;44.86
53246;BME280;39569;51.090;-1.786;2023-05-24T02:15:35;101975.69;;;19.50;44.82
53246;BME280;39569;51.090;-1.786;2023-05-24T02:18:03;101983.22;;;19.55;44.80
53246;BME280;39569;51.090;-1.786;2023-05-24T02:20:32;101981.59;;;19.26;45.43
53246;BME280;39569;51.090;-1.786;2023-05-24T02:23:01;101981.47;;;19.34;45.13
53246;BME280;39569;51.090;-1.786;2023-05-24T02:25:28;101972.81;;;19.24;45.08
53246;BME280;39569;51.090;-1.786;2023-05-24T02:27:56;101963.84;;;19.17;45.03
53246;BME280;39569;51.090;-1.786;2023-05-24T02:30:23;101965.13;;;19.21;45.28
53246;BME280;39569;51.090;-1.786;2023-05-24T02:32:50;101963.03;;;19.23;45.58
53246;BME280;39569;51.090;-1.786;2023-05-24T02:35:18;101970.53;;;19.21;45.55
53246;BME280;39569;51.090;-1.786;2023-05-24T02:37:45;101975.47;;;19.11;45.38
53246;BME280;39569;51.090;-1.786;2023-05-24T02:40:12;101958.69;;;18.95;45.63
53246;BME280;39569;51.090;-1.786;2023-05-24T02:42:39;101967.53;;;19.10;45.23
53246;BME280;39569;51.090;-1.786;2023-05-24T02:45:06;101967.63;;;19.23;45.33
53246;BME280;39569;51.090;-1.786;2023-05-24T02:47:33;101975.31;;;19.19;45.36
53246;BME280;39569;51.090;-1.786;2023-05-24T02:50:00;101975.63;;;19.03;45.43
53246;BME280;39569;51.090;-1.786;2023-05-24T02:52:28;101967.38;;;19.18;45.58
53246;BME280;39569;51.090;-1.786;2023-05-24T02:54:55;101974.47;;;19.19;45.45
53246;BME280;39569;51.090;-1.786;2023-05-24T02:57:22;101976.81;;;19.28;45.31
53246;BME280;39569;51.090;-1.786;2023-05-24T02:59:48;101971.50;;;19.41;45.15
53246;BME280;39569;51.090;-1.786;2023-05-24T03:02:15;101963.47;;;19.27;45.18
53246;BME280;39569;51.090;-1.786;2023-05-24T03:04:43;101967.63;;;19.23;45.24
53246;BME280;39569;51.090;-1.786;2023-05-24T03:07:10;101966.50;;;19.11;45.89
53246;BME280;39569;51.090;-1.786;2023-05-24T03:09:39;101958.44;;;19.24;45.44
53246;BME280;39569;51.090;-1.786;2023-05-24T03:12:06;101954.88;;;19.17;45.70
53246;BME280;39569;51.090;-1.786;2023-05-24T03:14:33;101966.06;;;19.07;45.47
53246;BME280;39569;51.090;-1.786;2023-05-24T03:16:59;101960.63;;;19.01;45.28
53246;BME280;39569;51.090;-1.786;2023-05-24T03:19:26;101964.22;;;19.14;45.34
53246;BME280;39569;51.090;-1.786;2023-05-24T03:21:53;101957.50;;;19.04;45.26
53246;BME280;39569;51.090;-1.786;2023-05-24T03:24:20;101960.00;;;19.05;45.43
53246;BME280;39569;51.090;-1.786;2023-05-24T03:26:48;101966.03;;;19.01;45.16
53246;BME280;39569;51.090;-1.786;2023-05-24T03:29:15;101964.13;;;18.95;45.31
53246;BME280;39569;51.090;-1.786;2023-05-24T03:31:41;101965.94;;;18.88;45.34
53246;BME280;39569;51.090;-1.786;2023-05-24T03:34:08;101965.88;;;18.81;45.39
53246;BME280;39569;51.090;-1.786;2023-05-24T03:36:35;101961.75;;;18.85;45.31
53246;BME280;39569;51.090;-1.786;2023-05-24T03:39:02;101961.63;;;19.00;45.32
53246;BME280;39569;51.090;-1.786;2023-05-24T03:41:29;101960.75;;;18.86;45.79
53246;BME280;39569;51.090;-1.786;2023-05-24T03:43:57;101961.63;;;18.93;45.44
53246;BME280;39569;51.090;-1.786;2023-05-24T03:46:24;101968.44;;;18.83;45.25
53246;BME280;39569;51.090;-1.786;2023-05-24T03:48:50;101969.88;;;18.85;45.28
53246;BME280;39569;51.090;-1.786;2023-05-24T03:51:17;101970.66;;;18.79;45.63
53246;BME280;39569;51.090;-1.786;2023-05-24T03:53:44;101968.44;;;18.83;45.60
53246;BME280;39569;51.090;-1.786;2023-05-24T03:56:11;101974.31;;;18.93;45.29
53246;BME280;39569;51.090;-1.786;2023-05-24T03:58:37;101970.72;;;18.86;45.35
53246;BME280;39569;51.090;-1.786;2023-05-24T04:01:06;101974.28;;;18.86;45.66
53246;BME280;39569;51.090;-1.786;2023-05-24T04:03:32;101970.97;;;18.91;45.32
53246;BME280;39569;51.090;-1.786;2023-05-24T04:05:59;101975.28;;;18.85;45.35
53246;BME280;39569;51.090;-1.786;2023-05-24T04:08:26;101977.75;;;18.80;45.43
53246;BME280;39569;51.090;-1.786;2023-05-24T04:10:53;101979.84;;;18.78;45.36
53246;BME280;39569;51.090;-1.786;2023-05-24T04:13:19;101970.00;;;18.71;45.37
53246;BME280;39569;51.090;-1.786;2023-05-24T04:15:46;101982.34;;;18.80;45.38
53246;BME280;39569;51.090;-1.786;2023-05-24T04:18:14;101980.59;;;18.72;45.33
53246;BME280;39569;51.090;-1.786;2023-05-24T04:20:41;101983.13;;;18.74;45.32
53246;BME280;39569;51.090;-1.786;2023-05-24T04:23:08;101984.59;;;18.76;45.25
53246;BME280;39569;51.090;-1.786;2023-05-24T04:25:35;101990.47;;;18.80;45.15
53246;BME280;39569;51.090;-1.786;2023-05-24T04:28:01;101991.25;;;18.74;45.30
53246;BME280;39569;51.090;-1.786;2023-05-24T04:30:28;101982.88;;;18.69;45.52
53246;BME280;39569;51.090;-1.786;2023-05-24T04:32:55;101992.09;;;18.74;45.50
53246;BME280;39569;51.090;-1.786;2023-05-24T04:35:24;101979.69;;;18.86;45.21
53246;BME280;39569;51.090;-1.786;2023-05-24T04:37:51;101988.59;;;18.80;45.39
53246;BME280;39569;51.090;-1.786;2023-05-24T04:40:18;101989.16;;;18.76;45.33
53246;BME280;39569;51.090;-1.786;2023-05-24T04:42:47;101982.75;;;18.77;45.39
53246;BME280;39569;51.090;-1.786;2023-05-24T04:45:14;101976.56;;;18.89;45.62
53246;BME280;39569;51.090;-1.786;2023-05-24T04:47:41;101975.91;;;18.81;45.34
53246;BME280;39569;51.090;-1.786;2023-05-24T04:50:08;101975.47;;;18.77;45.61
53246;BME280;39569;51.090;-1.786;2023-05-24T04:52:36;101970.88;;;18.78;45.78
53246;BME280;39569;51.090;-1.786;2023-05-24T04:55:04;101966.53;;;18.83;45.49
53246;BME280;39569;51.090;-1.786;2023-05-24T04:57:30;101974.22;;;18.80;45.39
53246;BME280;39569;51.090;-1.786;2023-05-24T04:59:57;101972.38;;;18.87;45.11
53246;BME280;39569;51.090;-1.786;2023-05-24T05:02:24;101977.63;;;18.88;44.51
53246;BME280;39569;51.090;-1.786;2023-05-24T05:04:51;101983.31;;;19.00;44.71
53246;BME280;39569;51.090;-1.786;2023-05-24T05:07:18;101985.78;;;18.95;45.08
53246;BME280;39569;51.090;-1.786;2023-05-24T05:09:47;101979.66;;;19.14;44.59
53246;BME280;39569;51.090;-1.786;2023-05-24T05:12:14;101991.91;;;19.10;44.32
53246;BME280;39569;51.090;-1.786;2023-05-24T05:14:40;101988.56;;;19.08;44.12
53246;BME280;39569;51.090;-1.786;2023-05-24T05:17:07;101978.16;;;19.11;44.20
53246;BME280;39569;51.090;-1.786;2023-05-24T05:19:34;101979.31;;;19.23;43.90
53246;BME280;39569;51.090;-1.786;2023-05-24T05:22:01;101977.41;;;19.24;43.97
53246;BME280;39569;51.090;-1.786;2023-05-24T05:24:27;101982.97;;;19.50;43.63
53246;BME280;39569;51.090;-1.786;2023-05-24T05:26:55;101976.59;;;19.64;44.18
53246;BME280;39569;51.090;-1.786;2023-05-24T05:29:22;101980.16;;;19.71;43.74
53246;BME280;39569;51.090;-1.786;2023-05-24T05:31:49;101980.59;;;19.81;43.38
53246;BME280;39569;51.090;-1.786;2023-05-24T05:34:16;101974.19;;;19.95;43.53
53246;BME280;39569;51.090;-1.786;2023-05-24T05:36:43;101980.03;;;20.05;43.37
53246;BME280;39569;51.090;-1.786;2023-05-24T05:39:10;101981.78;;;20.19;42.60
53246;BME280;39569;51.090;-1.786;2023-05-24T05:41:38;101977.16;;;20.33;42.68
53246;BME280;39569;51.090;-1.786;2023-05-24T05:44:09;101982.63;;;20.52;41.62
53246;BME280;39569;51.090;-1.786;2023-05-24T05:46:36;101975.94;;;20.55;41.69
53246;BME280;39569;51.090;-1.786;2023-05-24T05:49:03;101986.16;;;20.66;41.47
53246;BME280;39569;51.090;-1.786;2023-05-24T05:51:30;101988.69;;;20.81;40.99
53246;BME280;39569;51.090;-1.786;2023-05-24T05:53:57;101976.13;;;20.86;41.31
53246;BME280;39569;51.090;-1.786;2023-05-24T05:56:24;101985.94;;;20.87;41.42
53246;BME280;39569;51.090;-1.786;2023-05-24T05:58:52;101975.50;;;21.04;41.00
53246;BME280;39569;51.090;-1.786;2023-05-24T06:01:20;101978.22;;;21.10;41.29
53246;BME280;39569;51.090;-1.786;2023-05-24T06:03:48;101967.50;;;21.28;40.94
53246;BME280;39569;51.090;-1.786;2023-05-24T06:06:16;101967.44;;;21.41;41.19
53246;BME280;39569;51.090;-1.786;2023-05-24T06:08:43;101967.34;;;21.61;40.74
53246;BME280;39569;51.090;-1.786;2023-05-24T06:11:09;101972.50;;;21.82;40.27
53246;BME280;39569;51.090;-1.786;2023-05-24T06:13:36;101979.09;;;21.99;40.65
53246;BME280;39569;51.090;-1.786;2023-05-24T06:16:03;101969.75;;;22.20;40.26
53246;BME280;39569;51.090;-1.786;2023-05-24T06:18:34;101977.25;;;22.24;40.45
53246;BME280;39569;51.090;-1.786;2023-05-24T06:21:01;101968.41;;;22.29;40.23
53246;BME280;39569;51.090;-1.786;2023-05-24T06:23:28;101966.78;;;22.53;39.76
53246;BME280;39569;51.090;-1.786;2023-05-24T06:25:55;101956.91;;;22.58;39.70
53246;BME280;39569;51.090;-1.786;2023-05-24T06:28:21;101967.84;;;22.76;40.16
53246;BME280;39569;51.090;-1.786;2023-05-24T06:30:48;101959.91;;;22.75;40.12
53246;BME280;39569;51.090;-1.786;2023-05-24T06:33:15;101961.19;;;22.90;39.43
53246;BME280;39569;51.090;-1.786;2023-05-24T06:35:43;101961.38;;;22.95;39.93
53246;BME280;39569;51.090;-1.786;2023-05-24T06:38:10;101970.22;;;22.91;40.37
53246;BME280;39569;51.090;-1.786;2023-05-24T06:40:37;101962.28;;;23.07;39.98
53246;BME280;39569;51.090;-1.786;2023-05-24T06:43:04;101968.09;;;22.93;40.75
53246;BME280;39569;51.090;-1.786;2023-05-24T06:45:30;101965.38;;;23.11;40.97
53246;BME280;39569;51.090;-1.786;2023-05-24T06:47:57;101968.22;;;23.40;40.70
53246;BME280;39569;51.090;-1.786;2023-05-24T06:50:24;101969.44;;;23.45;40.33
53246;BME280;39569;51.090;-1.786;2023-05-24T06:52:53;101970.66;;;23.30;39.91
53246;BME280;39569;51.090;-1.786;2023-05-24T06:55:20;101966.84;;;23.97;38.87
53246;BME280;39569;51.090;-1.786;2023-05-24T06:57:46;101963.91;;;24.10;39.03
53246;BME280;39569;51.090;-1.786;2023-05-24T07:00:14;101969.78;;;24.25;39.32
53246;BME280;39569;51.090;-1.786;2023-05-24T07:02:41;101968.13;;;24.24;39.15
53246;BME280;39569;51.090;-1.786;2023-05-24T07:05:08;101974.41;;;24.25;39.24
53246;BME280;39569;51.090;-1.786;2023-05-24T07:07:37;101978.00;;;24.37;38.81
53246;BME280;39569;51.090;-1.786;2023-05-24T07:10:07;101985.06;;;24.68;38.43
53246;BME280;39569;51.090;-1.786;2023-05-24T07:12:34;101973.91;;;25.04;38.97
53246;BME280;39569;51.090;-1.786;2023-05-24T07:15:01;101968.19;;;25.17;38.72
53246;BME280;39569;51.090;-1.786;2023-05-24T07:17:28;101982.22;;;25.44;37.91
53246;BME280;39569;51.090;-1.786;2023-05-24T07:19:55;101982.81;;;25.11;37.84
53246;BME280;39569;51.090;-1.786;2023-05-24T07:22:22;101990.97;;;25.46;37.80
53246;BME280;39569;51.090;-1.786;2023-05-24T07:24:49;101997.16;;;25.81;36.45
53246;BME280;39569;51.090;-1.786;2023-05-24T07:27:18;101992.56;;;25.70;35.87
53246;BME280;39569;51.090;-1.786;2023-05-24T07:29:44;101993.31;;;25.65;35.46
53246;BME280;39569;51.090;-1.786;2023-05-24T07:32:11;102002.09;;;25.04;37.00
53246;BME280;39569;51.090;-1.786;2023-05-24T07:34:38;102003.84;;;24.76;37.31
53246;BME280;39569;51.090;-1.786;2023-05-24T07:37:05;102005.38;;;24.72;37.36
53246;BME280;39569;51.090;-1.786;2023-05-24T07:39:32;102014.38;;;24.61;37.92
53246;BME280;39569;51.090;-1.786;2023-05-24T07:41:59;102008.50;;;24.87;38.90
53246;BME280;39569;51.090;-1.786;2023-05-24T07:44:27;102007.81;;;25.03;38.16
53246;BME280;39569;51.090;-1.786;2023-05-24T07:46:54;102003.53;;;25.70;36.46
53246;BME280;39569;51.090;-1.786;2023-05-24T07:49:21;101997.94;;;25.65;36.46
53246;BME280;39569;51.090;-1.786;2023-05-24T07:51:48;101998.25;;;25.80;37.28
53246;BME280;39569;51.090;-1.786;2023-05-24T07:54:15;102001.88;;;25.69;37.05
53246;BME280;39569;51.090;-1.786;2023-05-24T07:56:41;102006.59;;;25.45;37.20
53246;BME280;39569;51.090;-1.786;2023-05-24T07:59:08;102005.28;;;25.24;36.97
53246;BME280;39569;51.090;-1.786;2023-05-24T08:01:37;102005.94;;;25.94;36.80
53246;BME280;39569;51.090;-1.786;2023-05-24T08:04:03;101997.94;;;26.49;36.28
53246;BME280;39569;51.090;-1.786;2023-05-24T08:06:33;101993.00;;;27.17;34.73
53246;BME280;39569;51.090;-1.786;2023-05-24T08:08:59;101994.75;;;27.67;34.08
53246;BME280;39569;51.090;-1.786;2023-05-24T08:11:26;102003.19;;;27.39;34.49
53246;BME280;39569;51.090;-1.786;2023-05-24T08:13:53;101999.09;;;26.86;34.17
53246;BME280;39569;51.090;-1.786;2023-05-24T08:16:20;101997.25;;;27.47;34.94
53246;BME280;39569;51.090;-1.786;2023-05-24T08:18:48;101991.50;;;27.48;34.60
53246;BME280;39569;51.090;-1.786;2023-05-24T08:21:15;101986.66;;;27.77;33.80
53246;BME280;39569;51.090;-1.786;2023-05-24T08:23:42;101988.09;;;28.06;32.70
53246;BME280;39569;51.090;-1.786;2023-05-24T08:26:08;101984.19;;;28.29;31.68
53246;BME280;39569;51.090;-1.786;2023-05-24T08:28:35;101971.22;;;27.97;33.03
53246;BME280;39569;51.090;-1.786;2023-05-24T08:31:02;101969.34;;;28.30;31.18
53246;BME280;39569;51.090;-1.786;2023-05-24T08:33:30;101971.75;;;28.21;30.57
53246;BME280;39569;51.090;-1.786;2023-05-24T08:35:59;101965.56;;;28.36;31.03
53246;BME280;39569;51.090;-1.786;2023-05-24T08:38:26;101968.34;;;28.72;31.91
53246;BME280;39569;51.090;-1.786;2023-05-24T08:40:53;101973.16;;;27.97;32.66
53246;BME280;39569;51.090;-1.786;2023-05-24T08:43:20;101968.03;;;28.37;33.46
53246;BME280;39569;51.090;-1.786;2023-05-24T08:45:48;101965.97;;;28.23;33.30
53246;BME280;39569;51.090;-1.786;2023-05-24T08:48:16;101969.69;;;27.85;33.06
53246;BME280;39569;51.090;-1.786;2023-05-24T08:50:44;101974.84;;;28.56;33.50
53246;BME280;39569;51.090;-1.786;2023-05-24T08:53:13;101978.59;;;28.50;32.55
53246;BME280;39569;51.090;-1.786;2023-05-24T08:55:40;101971.53;;;28.59;32.39
53246;BME280;39569;51.090;-1.786;2023-05-24T08:58:08;101975.00;;;28.50;32.78
53246;BME280;39569;51.090;-1.786;2023-05-24T09:00:35;101966.81;;;29.38;31.31
53246;BME280;39569;51.090;-1.786;2023-05-24T09:03:03;101955.31;;;28.99;32.21
53246;BME280;39569;51.090;-1.786;2023-05-24T09:05:31;101950.31;;;29.43;31.90
53246;BME280;39569;51.090;-1.786;2023-05-24T09:07:59;101951.41;;;29.37;32.84
53246;BME280;39569;51.090;-1.786;2023-05-24T09:10:28;101955.91;;;29.06;30.75
53246;BME280;39569;51.090;-1.786;2023-05-24T09:13:01;101955.28;;;28.94;33.05
53246;BME280;39569;51.090;-1.786;2023-05-24T09:15:29;101965.13;;;29.99;29.90
53246;BME280;39569;51.090;-1.786;2023-05-24T09:17:55;101952.69;;;30.01;31.45
53246;BME280;39569;51.090;-1.786;2023-05-24T09:20:22;101946.03;;;29.77;32.33
53246;BME280;39569;51.090;-1.786;2023-05-24T09:22:51;101947.31;;;29.55;30.90
53246;BME280;39569;51.090;-1.786;2023-05-24T09:25:19;101949.78;;;28.94;30.91
53246;BME280;39569;51.090;-1.786;2023-05-24T09:27:51;101949.22;;;29.44;30.77
53246;BME280;39569;51.090;-1.786;2023-05-24T09:30:18;101950.78;;;29.97;29.38
53246;BME280;39569;51.090;-1.786;2023-05-24T09:32:56;101954.38;;;30.68;28.65
53246;BME280;39569;51.090;-1.786;2023-05-24T09:35:23;101938.38;;;30.85;29.03
53246;BME280;39569;51.090;-1.786;2023-05-24T09:37:53;101943.66;;;31.55;28.15
53246;BME280;39569;51.090;-1.786;2023-05-24T09:40:22;101940.06;;;31.60;27.15
53246;BME280;39569;51.090;-1.786;2023-05-24T09:43:01;101948.00;;;31.03;28.85
53246;BME280;39569;51.090;-1.786;2023-05-24T09:45:28;101936.28;;;31.41;28.60
53246;BME280;39569;51.090;-1.786;2023-05-24T09:47:56;101943.38;;;31.57;27.50
53246;BME280;39569;51.090;-1.786;2023-05-24T09:50:22;101949.16;;;30.36;29.56
53246;BME280;39569;51.090;-1.786;2023-05-24T09:52:51;101925.97;;;30.72;29.37
53246;BME280;39569;51.090;-1.786;2023-05-24T09:55:19;101930.38;;;30.78;30.27
53246;BME280;39569;51.090;-1.786;2023-05-24T09:57:49;101929.53;;;29.97;30.06
53246;BME280;39569;51.090;-1.786;2023-05-24T10:00:22;101921.00;;;30.49;30.60
53246;BME280;39569;51.090;-1.786;2023-05-24T10:02:59;101919.78;;;31.16;29.78
53246;BME280;39569;51.090;-1.786;2023-05-24T10:05:27;101922.13;;;30.63;30.62
53246;BME280;39569;51.090;-1.786;2023-05-24T10:07:55;101904.50;;;31.38;28.48
53246;BME280;39569;51.090;-1.786;2023-05-24T10:10:25;101916.78;;;31.66;26.78
53246;BME280;39569;51.090;-1.786;2023-05-24T10:12:52;101926.31;;;31.45;27.73
53246;BME280;39569;51.090;-1.786;2023-05-24T10:15:22;101929.63;;;31.42;27.78
53246;BME280;39569;51.090;-1.786;2023-05-24T10:17:50;101919.88;;;32.03;29.02
53246;BME280;39569;51.090;-1.786;2023-05-24T10:20:17;101924.19;;;32.19;28.74
53246;BME280;39569;51.090;-1.786;2023-05-24T10:22:45;101929.66;;;31.32;30.19
53246;BME280;39569;51.090;-1.786;2023-05-24T10:25:16;101917.66;;;31.61;30.56
53246;BME280;39569;51.090;-1.786;2023-05-24T10:27:47;101908.69;;;31.36;28.47
53246;BME280;39569;51.090;-1.786;2023-05-24T10:30:18;101902.59;;;31.34;29.43
53246;BME280;39569;51.090;-1.786;2023-05-24T10:32:51;101895.16;;;31.78;28.28
53246;BME280;39569;51.090;-1.786;2023-05-24T10:35:19;101895.50;;;31.66;28.92
53246;BME280;39569;51.090;-1.786;2023-05-24T10:37:46;101902.56;;;31.87;29.65
53246;BME280;39569;51.090;-1.786;2023-05-24T10:40:17;101898.66;;;31.88;27.42
53246;BME280;39569;51.090;-1.786;2023-05-24T10:42:45;101903.50;;;32.45;26.69
53246;BME280;39569;51.090;-1.786;2023-05-24T10:45:29;101902.00;;;31.91;28.33
53246;BME280;39569;51.090;-1.786;2023-05-24T10:48:06;101903.22;;;32.42;27.93
53246;BME280;39569;51.090;-1.786;2023-05-24T10:50:34;101901.63;;;32.64;26.49
53246;BME280;39569;51.090;-1.786;2023-05-24T10:53:11;101898.69;;;33.08;25.87
53246;BME280;39569;51.090;-1.786;2023-05-24T10:55:53;101909.13;;;33.35;25.88
53246;BME280;39569;51.090;-1.786;2023-05-24T10:58:22;101903.63;;;32.59;28.26
53246;BME280;39569;51.090;-1.786;2023-05-24T11:00:52;101899.78;;;32.83;26.48
53246;BME280;39569;51.090;-1.786;2023-05-24T11:03:22;101892.53;;;33.72;26.05
53246;BME280;39569;51.090;-1.786;2023-05-24T11:05:50;101896.84;;;33.41;26.71
53246;BME280;39569;51.090;-1.786;2023-05-24T11:08:23;101891.56;;;33.02;25.12
53246;BME280;39569;51.090;-1.786;2023-05-24T11:11:01;101894.84;;;32.52;26.31
53246;BME280;39569;51.090;-1.786;2023-05-24T11:13:30;101897.25;;;32.58;28.95
53246;BME280;39569;51.090;-1.786;2023-05-24T11:15:57;101902.16;;;32.66;27.52
53246;BME280;39569;51.090;-1.786;2023-05-24T11:18:25;101893.22;;;32.74;26.62
53246;BME280;39569;51.090;-1.786;2023-05-24T11:20:52;101887.31;;;33.70;27.00
53246;BME280;39569;51.090;-1.786;2023-05-24T11:23:20;101890.69;;;33.49;25.61
53246;BME280;39569;51.090;-1.786;2023-05-24T11:25:47;101890.94;;;34.03;24.73
53246;BME280;39569;51.090;-1.786;2023-05-24T11:28:14;101889.47;;;33.73;26.13
53246;BME280;39569;51.090;-1.786;2023-05-24T11:30:42;101879.44;;;33.96;25.59
53246;BME280;39569;51.090;-1.786;2023-05-24T11:33:13;101876.03;;;33.99;23.58
53246;BME280;39569;51.090;-1.786;2023-05-24T11:35:41;101884.31;;;33.67;24.42
53246;BME280;39569;51.090;-1.786;2023-05-24T11:38:09;101882.59;;;34.54;23.39
53246;BME280;39569;51.090;-1.786;2023-05-24T11:40:38;101873.66;;;34.25;24.45
53246;BME280;39569;51.090;-1.786;2023-05-24T11:43:12;101876.00;;;34.50;24.53
53246;BME280;39569;51.090;-1.786;2023-05-24T11:45:40;101878.50;;;34.79;23.56
53246;BME280;39569;51.090;-1.786;2023-05-24T11:48:07;101872.53;;;34.26;24.57
53246;BME280;39569;51.090;-1.786;2023-05-24T11:50:37;101874.41;;;34.30;23.93
53246;BME280;39569;51.090;-1.786;2023-05-24T11:53:08;101870.22;;;34.14;24.27
53246;BME280;39569;51.090;-1.786;2023-05-24T11:55:35;101881.06;;;34.29;23.06
53246;BME280;39569;51.090;-1.786;2023-05-24T11:58:06;101868.41;;;34.83;22.66
53246;BME280;39569;51.090;-1.786;2023-05-24T12:00:37;101878.38;;;34.56;23.47
53246;BME280;39569;51.090;-1.786;2023-05-24T12:03:03;101878.59;;;34.87;24.30
53246;BME280;39569;51.090;-1.786;2023-05-24T12:05:32;101868.56;;;34.45;23.02
53246;BME280;39569;51.090;-1.786;2023-05-24T12:08:02;101872.34;;;34.36;23.33
53246;BME280;39569;51.090;-1.786;2023-05-24T12:10:32;101868.75;;;34.95;23.69
53246;BME280;39569;51.090;-1.786;2023-05-24T12:12:59;101880.81;;;34.12;24.30
53246;BME280;39569;51.090;-1.786;2023-05-24T12:15:26;101874.00;;;35.10;23.54
53246;BME280;39569;51.090;-1.786;2023-05-24T12:17:53;101871.38;;;34.86;23.56
53246;BME280;39569;51.090;-1.786;2023-05-24T12:20:20;101868.75;;;34.95;23.17
53246;BME280;39569;51.090;-1.786;2023-05-24T12:22:47;101878.06;;;35.26;22.69
53246;BME280;39569;51.090;-1.786;2023-05-24T12:25:16;101864.09;;;35.89;22.06
53246;BME280;39569;51.090;-1.786;2023-05-24T12:27:46;101846.91;;;35.15;22.50
53246;BME280;39569;51.090;-1.786;2023-05-24T12:30:14;101856.13;;;35.38;23.39
53246;BME280;39569;51.090;-1.786;2023-05-24T12:32:46;101851.38;;;35.03;22.53
53246;BME280;39569;51.090;-1.786;2023-05-24T12:35:15;101849.88;;;35.19;23.97
53246;BME280;39569;51.090;-1.786;2023-05-24T12:37:42;101850.03;;;35.49;22.49
53246;BME280;39569;51.090;-1.786;2023-05-24T12:40:16;101844.44;;;35.63;22.45
53246;BME280;39569;51.090;-1.786;2023-05-24T12:42:49;101844.13;;;36.09;21.09
53246;BME280;39569;51.090;-1.786;2023-05-24T12:45:16;101853.13;;;36.67;21.54